createdAt,value
2022-08-14T00:00:42.823Z,52.50
2022-08-14T00:03:21.154Z,52.60
2022-08-14T00:05:58.411Z,52.80
2022-08-14T00:08:45.140Z,52.90
2022-08-14T00:11:12.314Z,52.90
2022-08-14T00:13:39.000Z,53.10
2022-08-14T00:16:05.710Z,53.20
2022-08-14T00:19:06.633Z,53.40
2022-08-14T00:21:22.435Z,53.70
2022-08-14T00:24:01.546Z,53.90
2022-08-14T00:26:28.982Z,54.00
2022-08-14T00:28:55.599Z,54.20
2022-08-14T00:31:35.257Z,54.40
2022-08-14T00:34:36.448Z,54.50
2022-08-14T00:36:55.897Z,55.50
2022-08-14T00:39:26.010Z,55.00
2022-08-14T00:41:53.110Z,55.10
2022-08-14T00:44:21.344Z,55.20
2022-08-14T00:47:00.209Z,55.50
2022-08-14T00:49:28.668Z,55.60
2022-08-14T00:51:59.855Z,55.80
2022-08-14T00:54:26.590Z,56.00
2022-08-14T00:56:55.567Z,56.10
2022-08-14T00:59:26.309Z,56.30
2022-08-14T01:01:57.312Z,56.50
2022-08-14T01:04:50.922Z,56.70
2022-08-14T01:07:14.295Z,57.10
2022-08-14T01:09:41.073Z,57.30
2022-08-14T01:12:08.687Z,57.50
2022-08-14T01:14:35.770Z,57.70
2022-08-14T01:17:03.365Z,58.00
2022-08-14T01:19:49.537Z,58.20
2022-08-14T01:22:18.595Z,58.50
2022-08-14T01:24:46.912Z,58.80
2022-08-14T01:27:18.604Z,58.80
2022-08-14T01:30:01.243Z,59.70
2022-08-14T01:32:37.390Z,59.10
2022-08-14T01:35:21.144Z,59.30
2022-08-14T01:37:56.414Z,59.50
2022-08-14T01:40:25.697Z,59.60
2022-08-14T01:43:00.233Z,59.80
2022-08-14T01:45:31.513Z,60.00
2022-08-14T01:48:13.454Z,60.20
2022-08-14T01:50:41.777Z,60.50
2022-08-14T01:53:09.456Z,61.40
2022-08-14T01:55:38.531Z,60.90
2022-08-14T01:58:19.408Z,61.10
2022-08-14T02:00:55.687Z,61.50
2022-08-14T02:03:23.386Z,61.80
2022-08-14T02:05:50.094Z,62.00
2022-08-14T02:08:22.492Z,62.20
2022-08-14T02:11:20.257Z,62.10
2022-08-14T02:13:50.434Z,62.40
2022-08-14T02:16:22.508Z,62.60
2022-08-14T02:18:49.878Z,62.80
2022-08-14T02:21:18.482Z,63.10
2022-08-14T02:23:47.194Z,63.40
2022-08-14T02:26:29.861Z,63.50
2022-08-14T02:29:00.168Z,63.80
2022-08-14T02:31:42.641Z,64.00
2022-08-14T02:34:20.033Z,64.20
2022-08-14T02:37:05.323Z,64.50
2022-08-14T02:39:34.631Z,64.60
2022-08-14T02:42:04.439Z,64.70
2022-08-14T02:44:31.197Z,64.80
2022-08-14T02:47:14.733Z,65.00
2022-08-14T02:49:42.692Z,65.00
2022-08-14T02:52:26.778Z,65.30
2022-08-14T02:54:57.485Z,65.40
2022-08-14T02:57:40.724Z,65.50
2022-08-14T03:00:09.977Z,65.70
2022-08-14T03:02:56.408Z,65.90
2022-08-14T03:05:23.763Z,66.00
2022-08-14T03:07:52.844Z,66.20
2022-08-14T03:10:26.588Z,66.30
2022-08-14T03:12:55.469Z,66.50
2022-08-14T03:15:22.161Z,66.60
2022-08-14T03:17:57.847Z,66.70
2022-08-14T03:20:26.072Z,66.90
2022-08-14T03:22:52.795Z,67.20
2022-08-14T03:25:22.058Z,67.30
2022-08-14T03:27:58.584Z,67.50
2022-08-14T03:30:40.040Z,67.70
2022-08-14T03:33:11.274Z,67.80
2022-08-14T03:36:05.331Z,67.90
2022-08-14T03:39:12.170Z,68.10
2022-08-14T03:41:16.626Z,68.20
2022-08-14T03:43:44.178Z,68.40
2022-08-14T03:46:51.780Z,68.60
2022-08-14T03:49:02.769Z,68.70
2022-08-14T03:51:29.834Z,68.90
2022-08-14T03:53:58.011Z,69.00
2022-08-14T03:56:26.562Z,69.20
2022-08-14T03:58:55.998Z,69.40
2022-08-14T04:01:25.725Z,69.60
2022-08-14T04:04:02.463Z,69.70
2022-08-14T04:06:32.166Z,69.90
2022-08-14T04:08:59.152Z,69.90
2022-08-14T04:11:25.801Z,70.10
2022-08-14T04:13:52.444Z,70.40
2022-08-14T04:16:20.555Z,70.60
2022-08-14T04:18:56.815Z,70.70
2022-08-14T04:21:29.210Z,70.80
2022-08-14T04:23:58.193Z,70.80
2022-08-14T04:26:42.872Z,70.90
2022-08-14T04:29:14.939Z,71.10
2022-08-14T04:33:00.249Z,71.20
2022-08-14T04:34:29.260Z,71.30
2022-08-14T04:37:21.885Z,71.50
2022-08-14T04:40:09.775Z,71.70
2022-08-14T04:42:56.324Z,71.60
2022-08-14T04:45:23.657Z,71.90
2022-08-14T04:48:10.450Z,72.00
2022-08-14T04:50:43.945Z,72.30
2022-08-14T04:53:35.550Z,72.30
2022-08-14T04:56:06.031Z,72.30
2022-08-14T04:58:55.934Z,72.50
2022-08-14T05:01:22.603Z,72.60
2022-08-14T05:03:49.593Z,72.60
2022-08-14T05:06:38.530Z,72.80
2022-08-14T05:09:04.508Z,73.00
2022-08-14T05:11:33.306Z,73.10
2022-08-14T05:14:17.097Z,73.20
2022-08-14T05:16:50.575Z,73.30
2022-08-14T05:19:26.955Z,73.40
2022-08-14T05:22:16.515Z,73.50
2022-08-14T05:24:45.387Z,73.60
2022-08-14T05:27:15.590Z,73.70
2022-08-14T05:29:44.728Z,73.80
2022-08-14T05:32:11.789Z,73.70
2022-08-14T05:34:38.437Z,73.60
2022-08-14T05:37:07.420Z,74.00
2022-08-14T05:39:34.117Z,73.90
2022-08-14T05:42:00.935Z,74.00
2022-08-14T05:44:36.667Z,74.10
2022-08-14T05:47:03.314Z,74.20
2022-08-14T05:49:33.043Z,74.40
2022-08-14T05:52:01.964Z,74.40
2022-08-14T05:54:35.263Z,74.70
2022-08-14T05:57:03.255Z,74.30
2022-08-14T05:59:39.354Z,74.30
2022-08-14T06:02:07.481Z,74.40
2022-08-14T06:04:36.950Z,74.20
2022-08-14T06:07:03.636Z,74.30
2022-08-14T06:09:35.986Z,74.20
2022-08-14T06:12:08.266Z,74.20
2022-08-14T06:14:35.207Z,74.30
2022-08-14T06:17:04.330Z,74.60
2022-08-14T06:19:31.120Z,74.60
2022-08-14T06:21:58.310Z,74.70
2022-08-14T06:24:26.606Z,74.70
2022-08-14T06:27:03.938Z,74.70
2022-08-14T06:29:35.001Z,74.70
2022-08-14T06:32:37.246Z,74.50
2022-08-14T06:35:02.915Z,74.60
2022-08-14T06:37:47.789Z,74.30
2022-08-14T06:40:26.054Z,74.20
2022-08-14T06:43:03.184Z,74.20
2022-08-14T06:45:31.180Z,74.20
2022-08-14T06:47:58.764Z,74.20
2022-08-14T06:50:28.704Z,74.00
2022-08-14T06:52:58.408Z,73.90
2022-08-14T06:55:27.960Z,73.90
2022-08-14T06:57:56.355Z,73.80
2022-08-14T07:00:27.011Z,73.90
2022-08-14T07:03:12.975Z,73.60
2022-08-14T07:05:55.479Z,73.70
2022-08-14T07:08:29.508Z,73.80
2022-08-14T07:10:58.414Z,74.00
2022-08-14T07:13:27.521Z,73.60
2022-08-14T07:15:55.511Z,73.40
2022-08-14T07:18:26.078Z,73.90
2022-08-14T07:20:53.362Z,73.60
2022-08-14T07:23:23.847Z,73.60
2022-08-14T07:25:52.018Z,73.60
2022-08-14T07:28:44.897Z,73.60
2022-08-14T07:31:12.225Z,73.60
2022-08-14T07:33:43.706Z,73.50
2022-08-14T07:36:27.246Z,73.80
2022-08-14T07:38:58.130Z,74.10
2022-08-14T07:41:24.751Z,73.80
2022-08-14T07:43:58.833Z,73.80
2022-08-14T07:46:29.122Z,73.40
2022-08-14T07:48:58.202Z,73.40
2022-08-14T07:51:26.140Z,73.20
2022-08-14T07:54:01.991Z,73.20
2022-08-14T07:56:47.716Z,72.30
2022-08-14T07:59:18.494Z,72.30
2022-08-14T08:01:47.953Z,72.20
2022-08-14T08:04:24.591Z,72.30
2022-08-14T08:06:52.679Z,72.20
2022-08-14T08:09:23.353Z,71.80
2022-08-14T08:11:54.431Z,71.50
2022-08-14T08:14:21.709Z,71.40
2022-08-14T08:16:51.034Z,71.20
2022-08-14T08:19:19.312Z,71.20
2022-08-14T08:21:47.098Z,71.10
2022-08-14T08:24:20.013Z,70.90
2022-08-14T08:26:50.365Z,70.70
2022-08-14T08:29:28.277Z,70.50
2022-08-14T08:31:56.054Z,70.40
2022-08-14T08:34:24.294Z,70.30
2022-08-14T08:36:52.517Z,70.50
2022-08-14T08:39:22.285Z,69.60
2022-08-14T08:41:50.794Z,69.30
2022-08-14T08:44:33.228Z,69.00
2022-08-14T08:47:06.102Z,69.00
2022-08-14T08:49:43.253Z,69.00
2022-08-14T08:52:24.836Z,69.20
2022-08-14T08:54:56.227Z,69.00
2022-08-14T08:57:24.069Z,69.00
2022-08-14T08:59:55.347Z,68.50
2022-08-14T09:02:27.587Z,68.40
2022-08-14T09:05:01.948Z,68.00
2022-08-14T09:07:29.154Z,67.80
2022-08-14T09:09:59.135Z,66.90
2022-08-14T09:12:41.475Z,67.10
2022-08-14T09:15:14.190Z,66.50
2022-08-14T09:17:42.627Z,66.30
2022-08-14T09:20:11.519Z,66.00
2022-08-14T09:22:42.490Z,66.00
2022-08-14T09:25:15.267Z,65.40
2022-08-14T09:27:42.549Z,65.40
2022-08-14T09:30:13.324Z,65.50
2022-08-14T09:33:11.049Z,65.60
2022-08-14T09:35:39.528Z,64.80
2022-08-14T09:38:28.303Z,63.50
2022-08-14T09:41:01.285Z,63.90
2022-08-14T09:43:40.587Z,64.10
2022-08-14T09:46:09.519Z,63.40
2022-08-14T09:48:38.012Z,63.10
2022-08-14T09:54:12.544Z,62.30
2022-08-14T09:56:32.799Z,62.10
2022-08-14T09:59:14.856Z,62.00
2022-08-14T10:01:43.577Z,61.40
2022-08-14T10:04:34.209Z,61.40
2022-08-14T10:07:02.025Z,61.10
2022-08-14T10:09:33.328Z,61.00
2022-08-14T10:12:04.308Z,60.00
2022-08-14T10:14:34.944Z,59.70
2022-08-14T10:17:06.295Z,59.60
2022-08-14T10:19:35.924Z,60.20
2022-08-14T10:23:15.110Z,59.60
2022-08-14T10:24:54.796Z,58.80
2022-08-14T10:27:26.692Z,57.80
2022-08-14T10:30:01.859Z,57.70
2022-08-14T10:32:40.184Z,57.90
2022-08-14T10:35:13.567Z,57.80
2022-08-14T10:37:46.858Z,57.80
2022-08-14T10:40:37.748Z,57.50
2022-08-14T10:43:02.933Z,56.10
2022-08-14T10:45:34.056Z,55.00
2022-08-14T10:48:24.506Z,55.40
2022-08-14T10:51:00.798Z,55.40
2022-08-14T10:53:33.149Z,54.50
2022-08-14T10:56:03.629Z,54.10
2022-08-14T10:58:34.277Z,54.00
2022-08-14T11:01:08.018Z,52.70
2022-08-14T11:03:55.644Z,52.70
2022-08-14T11:06:24.759Z,51.50
2022-08-14T11:08:52.910Z,51.50
2022-08-14T11:11:23.105Z,51.30
2022-08-14T11:13:51.043Z,50.70
2022-08-14T11:16:18.390Z,50.40
2022-08-14T11:18:50.721Z,50.40
2022-08-14T11:21:21.361Z,49.90
2022-08-14T11:23:49.471Z,48.60
2022-08-14T11:26:24.468Z,49.10
2022-08-14T11:28:52.295Z,48.00
2022-08-14T11:31:26.174Z,48.00
2022-08-14T11:34:05.762Z,47.80
2022-08-14T11:37:04.436Z,47.10
2022-08-14T11:39:40.669Z,46.20
2022-08-14T11:42:56.796Z,45.50
2022-08-14T11:45:11.057Z,44.90
2022-08-14T11:48:13.140Z,43.90
2022-08-14T11:50:36.765Z,43.40
2022-08-14T11:53:05.969Z,43.40
2022-08-14T11:55:34.671Z,44.30
2022-08-14T11:58:11.113Z,43.30
2022-08-14T12:00:53.603Z,43.00
2022-08-14T12:03:37.852Z,43.60
2022-08-14T12:06:27.878Z,44.00
2022-08-14T12:08:56.797Z,44.50
2022-08-14T12:11:38.126Z,43.50
2022-08-14T12:14:13.512Z,43.50
2022-08-14T12:17:02.129Z,42.00
2022-08-14T12:19:28.972Z,40.90
2022-08-14T12:22:00.540Z,41.50
2022-08-14T12:24:36.744Z,41.70
2022-08-14T12:27:06.676Z,41.80
2022-08-14T12:29:33.794Z,39.00
2022-08-14T12:32:08.744Z,40.10
2022-08-14T12:34:36.996Z,39.20
2022-08-14T12:37:05.567Z,38.30
2022-08-14T12:39:40.064Z,39.00
2022-08-14T12:42:07.777Z,39.60
2022-08-14T12:44:39.246Z,39.80
2022-08-14T12:47:13.602Z,40.00
2022-08-14T12:49:52.839Z,40.10
2022-08-14T12:52:43.144Z,40.10
2022-08-14T12:55:21.014Z,40.40
2022-08-14T12:57:53.218Z,40.10
2022-08-14T13:00:22.990Z,39.90
2022-08-14T13:02:55.107Z,39.80
2022-08-14T13:05:30.068Z,39.30
2022-08-14T13:07:57.326Z,39.40
2022-08-14T13:10:46.802Z,39.40
2022-08-14T13:13:16.130Z,39.10
2022-08-14T13:15:45.433Z,39.10
2022-08-14T13:18:13.421Z,38.70
2022-08-14T13:20:51.532Z,38.60
2022-08-14T13:23:32.168Z,38.50
2022-08-14T13:25:59.766Z,38.60
2022-08-14T13:28:33.073Z,38.80
2022-08-14T13:31:04.393Z,38.80
2022-08-14T13:33:38.118Z,38.90
2022-08-14T13:36:08.306Z,39.00
2022-08-14T13:38:35.133Z,38.90
2022-08-14T13:41:02.359Z,38.80
2022-08-14T13:43:31.594Z,38.40
2022-08-14T13:46:03.822Z,38.70
2022-08-14T13:48:33.315Z,37.70
2022-08-14T13:51:04.371Z,38.70
2022-08-14T13:53:33.757Z,38.90
2022-08-14T13:56:01.423Z,38.90
2022-08-14T13:58:34.674Z,39.10
2022-08-14T14:01:02.678Z,39.30
2022-08-14T14:03:34.883Z,39.60
2022-08-14T14:06:02.690Z,40.00
2022-08-14T14:08:46.938Z,40.10
2022-08-14T14:11:16.116Z,40.20
2022-08-14T14:13:45.263Z,40.60
2022-08-14T14:16:15.009Z,40.70
2022-08-14T14:18:43.314Z,40.60
2022-08-14T14:21:13.690Z,40.30
2022-08-14T14:23:42.805Z,40.20
2022-08-14T14:26:13.728Z,39.60
2022-08-14T14:28:42.194Z,39.00
2022-08-14T14:31:10.897Z,38.80
2022-08-14T14:33:47.740Z,38.90
2022-08-14T14:36:21.266Z,38.90
2022-08-14T14:38:51.272Z,38.50
2022-08-14T14:41:20.969Z,37.80
2022-08-14T14:43:52.734Z,37.60
2022-08-14T14:46:21.797Z,37.10
2022-08-14T14:49:04.387Z,36.70
2022-08-14T14:51:32.709Z,36.50
2022-08-14T14:53:59.655Z,36.70
2022-08-14T14:56:50.364Z,37.00
2022-08-14T14:59:16.816Z,37.40
2022-08-14T15:01:47.583Z,37.60
2022-08-14T15:04:20.778Z,37.40
2022-08-14T15:06:48.503Z,37.50
2022-08-14T15:09:17.775Z,37.60
2022-08-14T15:11:47.282Z,37.50
2022-08-14T15:14:54.836Z,37.50
2022-08-14T15:17:01.805Z,36.90
2022-08-14T15:19:28.756Z,36.80
2022-08-14T15:21:55.459Z,36.80
2022-08-14T15:24:24.393Z,36.20
2022-08-14T15:26:56.141Z,35.60
2022-08-14T15:29:22.791Z,35.30
2022-08-14T15:31:53.914Z,34.60
2022-08-14T15:34:44.656Z,34.10
2022-08-14T15:37:10.911Z,33.40
2022-08-14T15:39:41.417Z,33.60
2022-08-14T15:42:15.998Z,33.30
2022-08-14T15:44:57.908Z,33.10
2022-08-14T15:47:30.161Z,32.80
2022-08-14T15:50:04.355Z,32.50
2022-08-14T15:52:35.218Z,31.80
2022-08-14T15:55:05.645Z,31.70
2022-08-14T15:57:33.374Z,32.10
2022-08-14T16:00:37.924Z,32.30
2022-08-14T16:03:09.635Z,32.60
2022-08-14T16:05:38.386Z,32.70
2022-08-14T16:08:26.842Z,32.20
2022-08-14T16:10:55.022Z,32.00
2022-08-14T16:13:39.235Z,31.90
2022-08-14T16:16:34.604Z,32.40
2022-08-14T16:18:58.068Z,32.70
2022-08-14T16:21:31.717Z,33.00
2022-08-14T16:23:59.618Z,33.30
2022-08-14T16:26:30.056Z,33.80
2022-08-14T16:29:04.724Z,34.20
2022-08-14T16:31:36.195Z,34.50
2022-08-14T16:34:44.071Z,34.40
2022-08-14T16:36:54.226Z,34.20
2022-08-14T16:39:22.798Z,33.80
2022-08-14T16:41:52.231Z,30.00
2022-08-14T16:44:21.911Z,31.50
2022-08-14T16:47:01.715Z,32.00
2022-08-14T16:49:35.324Z,32.20
2022-08-14T16:52:25.642Z,32.30
2022-08-14T16:55:04.460Z,32.60
2022-08-14T16:57:32.581Z,32.70
2022-08-14T16:59:59.522Z,32.70
2022-08-14T17:02:33.915Z,32.70
2022-08-14T17:05:20.639Z,33.20
2022-08-14T17:08:28.561Z,33.50
2022-08-14T17:10:52.994Z,34.60
2022-08-14T17:13:27.002Z,35.20
2022-08-14T17:16:09.030Z,35.70
2022-08-14T17:18:55.476Z,36.60
2022-08-14T17:21:27.746Z,37.20
2022-08-14T17:24:57.042Z,37.40
2022-08-14T17:26:55.275Z,37.20
2022-08-14T17:29:23.527Z,37.60
2022-08-14T17:32:02.116Z,38.20
2022-08-14T17:34:46.747Z,38.60
2022-08-14T17:37:28.594Z,39.00
2022-08-14T17:40:02.598Z,39.60
2022-08-14T17:42:45.662Z,39.90
2022-08-14T17:45:42.619Z,40.20
2022-08-14T17:49:13.848Z,41.10
2022-08-14T17:51:23.977Z,40.80
2022-08-14T17:54:02.356Z,41.10
2022-08-14T17:56:30.785Z,41.40
2022-08-14T17:59:04.912Z,41.70
2022-08-14T18:01:35.396Z,41.80
2022-08-14T18:04:05.554Z,42.00
2022-08-14T18:06:39.399Z,42.20
2022-08-14T18:09:26.151Z,42.40
2022-08-14T18:11:54.226Z,42.70
2022-08-14T18:14:32.324Z,43.10
2022-08-14T18:17:01.005Z,43.40
2022-08-14T18:19:29.167Z,43.70
2022-08-14T18:21:57.981Z,44.00
2022-08-14T18:24:29.579Z,44.20
2022-08-14T18:27:08.880Z,44.50
2022-08-14T18:29:42.398Z,44.50
2022-08-14T18:32:27.696Z,44.90
2022-08-14T18:35:03.471Z,45.00
2022-08-14T18:37:39.251Z,45.20
2022-08-14T18:40:18.285Z,45.40
2022-08-14T18:42:46.039Z,45.60
2022-08-14T18:45:21.069Z,45.70
2022-08-14T18:48:16.269Z,46.00
2022-08-14T18:50:47.245Z,46.30
2022-08-14T18:53:15.486Z,46.50
2022-08-14T18:55:53.354Z,46.90
2022-08-14T18:58:27.584Z,47.20
2022-08-14T19:00:59.275Z,47.40
2022-08-14T19:03:36.818Z,47.80
2022-08-14T19:06:08.474Z,48.00
2022-08-14T19:08:46.144Z,48.20
2022-08-14T19:11:31.848Z,48.60
2022-08-14T19:13:59.387Z,48.90
2022-08-14T19:16:34.171Z,49.10
2022-08-14T19:19:06.712Z,49.40
2022-08-14T19:21:34.657Z,49.70
2022-08-14T19:24:04.473Z,49.80
2022-08-14T19:26:54.542Z,50.00
2022-08-14T19:29:42.245Z,50.40
2022-08-14T19:32:36.583Z,51.30
2022-08-14T19:35:16.659Z,50.70
2022-08-14T19:37:52.671Z,51.00
2022-08-14T19:40:34.127Z,51.10
2022-08-14T19:43:03.015Z,51.40
2022-08-14T19:45:33.831Z,51.70
2022-08-14T19:48:01.258Z,51.80
2022-08-14T19:50:40.827Z,52.20
2022-08-14T19:53:11.372Z,52.30
2022-08-14T19:55:39.444Z,52.40
2022-08-14T19:58:12.804Z,52.70
2022-08-14T20:00:52.140Z,52.90
2022-08-14T20:03:24.184Z,53.10
2022-08-14T20:06:03.078Z,53.40
2022-08-14T20:10:58.267Z,53.70
2022-08-14T20:12:00.575Z,53.90
2022-08-14T20:14:20.440Z,54.30
2022-08-14T20:16:55.394Z,54.50
2022-08-14T20:19:28.610Z,54.80
2022-08-14T20:22:00.564Z,55.00
2022-08-14T20:24:45.564Z,55.20
2022-08-14T20:27:16.577Z,55.40
2022-08-14T20:29:43.947Z,55.80
2022-08-14T20:32:15.784Z,56.00
2022-08-14T20:34:51.240Z,56.30
2022-08-14T20:37:22.369Z,56.50
2022-08-14T20:39:54.904Z,56.70
2022-08-14T20:42:43.701Z,56.90
2022-08-14T20:45:23.861Z,57.20
2022-08-14T20:48:09.313Z,57.40
2022-08-14T20:50:36.643Z,57.70
2022-08-14T20:53:26.129Z,58.00
2022-08-14T20:55:54.316Z,58.20
2022-08-14T20:58:38.774Z,58.40
2022-08-14T21:01:13.476Z,58.60
2022-08-14T21:03:56.814Z,58.90
2022-08-14T21:06:26.301Z,59.20
2022-08-14T21:08:54.307Z,59.40
2022-08-14T21:11:22.930Z,59.60
2022-08-14T21:14:24.673Z,59.90
2022-08-14T21:16:45.093Z,60.00
2022-08-14T21:19:27.555Z,60.30
2022-08-14T21:21:55.613Z,60.50
2022-08-14T21:24:40.054Z,60.70
2022-08-14T21:27:19.802Z,60.90
2022-08-14T21:29:55.273Z,61.00
2022-08-14T21:32:34.496Z,61.10
2022-08-14T21:35:08.755Z,61.40
2022-08-14T21:37:43.643Z,61.60
2022-08-14T21:40:35.380Z,61.60
2022-08-14T21:43:00.968Z,61.80
2022-08-14T21:45:27.689Z,62.00
2022-08-14T21:47:56.310Z,62.10
2022-08-14T21:50:39.390Z,62.30
2022-08-14T21:53:10.579Z,62.40
2022-08-14T21:55:37.654Z,62.60
2022-08-14T21:58:54.529Z,62.80
2022-08-14T22:00:53.794Z,62.90
2022-08-14T22:03:24.094Z,63.00
2022-08-14T22:05:51.986Z,63.20
2022-08-14T22:08:19.971Z,63.20
2022-08-14T22:10:47.310Z,63.30
2022-08-14T22:13:21.155Z,63.50
2022-08-14T22:15:49.354Z,63.50
2022-08-14T22:18:20.474Z,63.60
2022-08-14T22:20:48.444Z,63.60
2022-08-14T22:23:21.589Z,63.60
2022-08-14T22:25:50.137Z,63.60
2022-08-14T22:28:19.662Z,63.70
2022-08-14T22:30:47.165Z,63.80
2022-08-14T22:33:21.451Z,63.90
2022-08-14T22:35:48.099Z,64.00
2022-08-14T22:38:36.126Z,64.10
2022-08-14T22:41:26.949Z,64.10
2022-08-14T22:43:53.626Z,64.20
2022-08-14T22:46:21.057Z,64.30
2022-08-14T22:48:48.546Z,64.30
2022-08-14T22:51:17.733Z,64.20
2022-08-14T22:53:46.153Z,64.20
2022-08-14T22:56:20.454Z,64.20
2022-08-14T22:58:48.384Z,64.20
2022-08-14T23:01:18.660Z,64.20
2022-08-14T23:03:49.824Z,64.30
2022-08-14T23:07:02.993Z,64.40
2022-08-14T23:09:36.409Z,64.40
2022-08-14T23:11:52.059Z,64.50
2022-08-14T23:14:26.826Z,64.40
2022-08-14T23:16:57.732Z,64.60
2022-08-14T23:19:25.371Z,64.70
2022-08-14T23:22:00.759Z,64.80
2022-08-14T23:24:27.664Z,64.80
2022-08-14T23:26:55.895Z,65.00
2022-08-14T23:29:22.538Z,65.00
2022-08-14T23:31:49.239Z,65.10
2022-08-14T23:34:20.583Z,65.20
2022-08-14T23:36:53.930Z,65.30
2022-08-14T23:39:30.281Z,65.30
2022-08-14T23:41:57.820Z,65.40
2022-08-14T23:44:32.031Z,65.50
2022-08-14T23:47:03.431Z,65.50
2022-08-14T23:49:55.467Z,65.70
2022-08-14T23:52:56.012Z,66.10
2022-08-14T23:55:11.443Z,66.40
2022-08-14T23:57:43.931Z,66.60
